createdAt,value
2017-08-07T00:01:55.391Z,3.53
2017-08-07T00:04:22.164Z,3.03
2017-08-07T00:06:49.002Z,3.67
2017-08-07T00:09:15.802Z,3.10
2017-08-07T00:11:42.581Z,3.60
2017-08-07T00:14:09.408Z,3.70
2017-08-07T00:16:36.247Z,3.90
2017-08-07T00:19:03.092Z,3.47
2017-08-07T00:21:29.986Z,4.03
2017-08-07T00:23:56.775Z,3.63
2017-08-07T00:26:23.609Z,3.73
2017-08-07T00:28:50.389Z,3.83
2017-08-07T00:31:17.238Z,3.73
2017-08-07T00:33:44.038Z,3.07
2017-08-07T00:36:10.880Z,3.60
2017-08-07T00:38:37.670Z,3.43
2017-08-07T00:41:04.467Z,3.50
2017-08-07T00:43:31.310Z,3.87
2017-08-07T00:45:58.106Z,3.83
2017-08-07T00:48:24.943Z,4.03
2017-08-07T00:50:51.715Z,3.43
2017-08-07T00:53:18.509Z,3.73
2017-08-07T00:55:45.345Z,3.40
2017-08-07T00:58:12.145Z,3.67
2017-08-07T01:00:38.989Z,3.50
2017-08-07T01:03:05.781Z,3.60
2017-08-07T01:05:32.643Z,3.37
2017-08-07T01:07:59.498Z,3.50
2017-08-07T01:10:26.282Z,3.23
2017-08-07T01:12:53.056Z,3.60
2017-08-07T01:15:19.897Z,4.10
2017-08-07T01:17:46.745Z,3.40
2017-08-07T01:20:13.576Z,3.97
2017-08-07T01:22:40.382Z,3.57
2017-08-07T01:25:07.219Z,3.00
2017-08-07T01:27:34.049Z,3.43
2017-08-07T01:30:00.880Z,3.20
2017-08-07T01:32:27.711Z,4.00
2017-08-07T01:34:54.576Z,3.40
2017-08-07T01:37:21.364Z,3.20
2017-08-07T01:39:48.144Z,3.53
2017-08-07T01:42:14.981Z,3.60
2017-08-07T01:44:41.773Z,3.70
2017-08-07T01:47:08.624Z,3.77
2017-08-07T01:49:35.505Z,3.30
2017-08-07T01:52:02.280Z,3.77
2017-08-07T01:54:29.137Z,3.50
2017-08-07T01:56:55.916Z,3.60
2017-08-07T01:59:22.716Z,3.30
2017-08-07T02:01:49.563Z,4.00
2017-08-07T02:04:16.344Z,3.60
2017-08-07T02:06:43.125Z,3.43
2017-08-07T02:09:09.972Z,3.90
2017-08-07T02:11:36.755Z,3.90
2017-08-07T02:14:03.536Z,3.30
2017-08-07T02:16:30.397Z,4.20
2017-08-07T02:18:57.192Z,3.10
2017-08-07T02:21:23.978Z,3.63
2017-08-07T02:23:50.807Z,3.87
2017-08-07T02:26:17.596Z,4.37
2017-08-07T02:28:44.383Z,3.87
2017-08-07T02:31:11.216Z,3.57
2017-08-07T02:33:37.992Z,3.93
2017-08-07T02:36:04.815Z,3.70
2017-08-07T02:38:31.658Z,4.00
2017-08-07T02:40:58.446Z,3.77
2017-08-07T02:43:25.277Z,4.20
2017-08-07T02:45:52.108Z,4.00
2017-08-07T02:48:18.881Z,4.10
2017-08-07T02:50:45.721Z,4.00
2017-08-07T02:53:12.511Z,4.20
2017-08-07T02:55:39.372Z,4.20
2017-08-07T02:58:06.139Z,3.70
2017-08-07T03:00:32.992Z,3.73
2017-08-07T03:02:59.793Z,3.90
2017-08-07T03:05:26.581Z,3.77
2017-08-07T03:07:53.414Z,4.00
2017-08-07T03:10:20.249Z,3.77
2017-08-07T03:12:47.034Z,3.70
2017-08-07T03:15:13.863Z,3.50
2017-08-07T03:17:40.644Z,3.70
2017-08-07T03:20:07.485Z,3.63
2017-08-07T03:22:34.286Z,4.50
2017-08-07T03:25:01.118Z,3.53
2017-08-07T03:27:27.957Z,3.90
2017-08-07T03:29:54.754Z,4.23
2017-08-07T03:32:21.580Z,3.53
2017-08-07T03:34:48.355Z,3.90
2017-08-07T03:37:15.189Z,4.17
2017-08-07T03:39:42.043Z,4.30
2017-08-07T03:42:08.825Z,4.10
2017-08-07T03:44:35.624Z,4.10
2017-08-07T03:47:02.487Z,3.40
2017-08-07T03:49:29.341Z,3.97
2017-08-07T03:51:56.224Z,4.00
2017-08-07T03:54:23.075Z,4.40
2017-08-07T03:56:49.894Z,4.17
2017-08-07T03:59:16.777Z,4.13
2017-08-07T04:01:43.602Z,4.70
2017-08-07T04:04:10.484Z,4.40
2017-08-07T04:06:37.347Z,3.93
2017-08-07T04:09:04.173Z,4.20
2017-08-07T04:11:31.055Z,4.47
2017-08-07T04:13:57.879Z,4.37
2017-08-07T04:16:24.745Z,4.50
2017-08-07T04:18:51.575Z,3.93
2017-08-07T04:21:18.421Z,5.90
2017-08-07T04:23:45.278Z,4.57
2017-08-07T04:26:12.111Z,4.50
2017-08-07T04:28:39.314Z,4.63
2017-08-07T04:31:06.133Z,4.50
2017-08-07T04:33:32.964Z,4.83
2017-08-07T04:35:59.852Z,4.63
2017-08-07T04:38:26.684Z,4.63
2017-08-07T04:40:53.559Z,4.70
2017-08-07T04:43:20.395Z,4.73
2017-08-07T04:45:47.234Z,4.87
2017-08-07T04:48:14.121Z,4.50
2017-08-07T04:50:40.976Z,5.10
2017-08-07T04:53:07.811Z,4.40
2017-08-07T04:55:34.709Z,4.97
2017-08-07T04:58:01.597Z,5.00
2017-08-07T05:00:28.441Z,4.97
2017-08-07T05:02:55.372Z,4.57
2017-08-07T05:05:22.240Z,4.90
2017-08-07T05:07:49.064Z,5.30
2017-08-07T05:10:15.966Z,4.80
2017-08-07T05:12:42.807Z,4.67
2017-08-07T05:15:09.639Z,5.60
2017-08-07T05:17:36.532Z,5.30
2017-08-07T05:20:03.375Z,5.47
2017-08-07T05:22:30.269Z,4.93
2017-08-07T05:24:57.150Z,5.53
2017-08-07T05:27:24.040Z,5.93
2017-08-07T05:29:50.881Z,5.30
2017-08-07T05:32:17.793Z,4.77
2017-08-07T05:34:44.650Z,5.47
2017-08-07T05:37:11.479Z,4.73
2017-08-07T05:39:38.360Z,4.80
2017-08-07T05:42:05.189Z,5.30
2017-08-07T05:50:00.395Z,4.60
2017-08-07T05:52:27.123Z,4.50
2017-08-07T05:54:53.798Z,4.57
2017-08-07T05:57:20.504Z,5.10
2017-08-07T05:59:47.256Z,4.03
2017-08-07T06:02:13.975Z,4.40
2017-08-07T06:04:40.777Z,3.73
2017-08-07T06:07:07.476Z,4.63
2017-08-07T06:09:34.318Z,4.77
2017-08-07T06:12:01.059Z,4.10
2017-08-07T06:14:27.759Z,4.00
2017-08-07T06:16:54.474Z,3.87
2017-08-07T06:19:21.177Z,4.10
2017-08-07T06:21:47.964Z,3.50
2017-08-07T06:24:14.734Z,3.93
2017-08-07T06:26:41.435Z,2.90
2017-08-07T06:29:08.163Z,3.67
2017-08-07T06:31:34.848Z,3.57
2017-08-07T06:34:01.598Z,3.80
2017-08-07T06:36:28.292Z,3.57
2017-08-07T06:38:54.998Z,3.90
2017-08-07T06:41:22.302Z,3.57
2017-08-07T06:43:48.983Z,3.87
2017-08-07T06:46:15.711Z,3.93
2017-08-07T06:48:42.412Z,3.77
2017-08-07T06:51:09.103Z,3.87
2017-08-07T06:53:35.833Z,3.83
2017-08-07T06:56:02.562Z,4.03
2017-08-07T06:58:29.287Z,4.07
2017-08-07T07:00:56.038Z,3.80
2017-08-07T07:03:22.773Z,3.50
2017-08-07T07:05:49.465Z,3.60
2017-08-07T07:08:16.154Z,3.50
2017-08-07T07:10:42.871Z,3.90
2017-08-07T07:13:09.577Z,3.30
2017-08-07T07:15:36.319Z,3.30
2017-08-07T07:18:03.010Z,3.20
2017-08-07T07:20:29.725Z,3.30
2017-08-07T07:22:56.420Z,3.23
2017-08-07T07:25:23.159Z,3.37
2017-08-07T07:27:49.850Z,3.17
2017-08-07T07:30:16.553Z,3.00
2017-08-07T07:32:43.299Z,3.20
2017-08-07T07:35:09.978Z,3.10
2017-08-07T07:37:36.720Z,3.40
2017-08-07T07:40:03.459Z,3.37
2017-08-07T07:42:30.144Z,3.23
2017-08-07T07:44:56.832Z,3.30
2017-08-07T07:47:23.556Z,2.90
2017-08-07T07:49:50.237Z,3.70
2017-08-07T07:52:16.968Z,3.10
2017-08-07T07:54:43.714Z,3.20
2017-08-07T07:57:10.398Z,3.00
2017-08-07T07:59:37.178Z,2.97
2017-08-07T08:02:03.891Z,3.00
2017-08-07T08:04:30.583Z,2.70
2017-08-07T08:06:57.328Z,2.73
2017-08-07T08:09:24.014Z,3.40
2017-08-07T08:11:50.701Z,2.67
2017-08-07T08:14:17.441Z,2.80
2017-08-07T08:16:44.122Z,2.93
2017-08-07T08:19:10.896Z,2.80
2017-08-07T08:21:37.635Z,3.00
2017-08-07T08:24:04.370Z,2.70
2017-08-07T08:26:31.078Z,2.50
2017-08-07T08:28:57.812Z,2.87
2017-08-07T08:31:24.496Z,2.70
2017-08-07T08:33:51.162Z,2.80
2017-08-07T08:36:17.902Z,2.60
2017-08-07T08:38:44.582Z,2.33
2017-08-07T08:41:11.278Z,2.50
2017-08-07T08:43:38.006Z,2.73
2017-08-07T08:46:04.723Z,2.40
2017-08-07T08:48:31.404Z,2.37
2017-08-07T08:50:58.147Z,2.33
2017-08-07T08:53:24.826Z,2.30
2017-08-07T08:55:51.508Z,2.23
2017-08-07T08:58:18.240Z,2.10
2017-08-07T09:00:44.922Z,2.50
2017-08-07T09:03:11.646Z,2.30
2017-08-07T09:05:38.351Z,2.30
2017-08-07T09:08:05.030Z,2.63
2017-08-07T09:10:31.747Z,2.53
2017-08-07T09:12:58.442Z,2.20
2017-08-07T09:15:25.165Z,1.80
2017-08-07T09:17:51.850Z,2.13
2017-08-07T09:20:18.579Z,2.00
2017-08-07T09:22:45.302Z,2.03
2017-08-07T09:25:11.992Z,2.20
2017-08-07T09:27:38.674Z,2.00
2017-08-07T09:30:05.517Z,2.00
2017-08-07T09:32:32.234Z,1.90
2017-08-07T09:34:58.922Z,1.70
2017-08-07T09:37:25.654Z,2.00
2017-08-07T09:39:52.349Z,1.80
2017-08-07T09:42:19.119Z,1.87
2017-08-07T09:44:45.905Z,2.17
2017-08-07T09:47:12.600Z,1.57
2017-08-07T09:49:39.330Z,1.90
2017-08-07T09:52:06.030Z,1.30
2017-08-07T09:54:32.715Z,2.10
2017-08-07T09:56:59.439Z,1.87
2017-08-07T09:59:26.170Z,1.93
2017-08-07T10:01:52.846Z,1.70
2017-08-07T10:04:19.578Z,1.73
2017-08-07T10:06:46.264Z,1.70
2017-08-07T10:09:13.001Z,1.70
2017-08-07T10:11:39.695Z,2.10
2017-08-07T10:14:06.401Z,1.90
2017-08-07T10:16:33.151Z,2.00
2017-08-07T10:18:59.965Z,1.60
2017-08-07T10:21:26.659Z,1.90
2017-08-07T10:23:53.397Z,1.50
2017-08-07T10:26:20.098Z,2.03
2017-08-07T10:28:46.827Z,1.77
2017-08-07T10:31:13.518Z,1.60
2017-08-07T10:33:40.201Z,1.70
2017-08-07T10:36:06.917Z,1.77
2017-08-07T10:38:33.605Z,2.10
2017-08-07T10:41:00.344Z,1.80
2017-08-07T10:43:27.036Z,1.83
2017-08-07T10:45:54.635Z,1.70
2017-08-07T10:48:21.314Z,2.00
2017-08-07T10:50:48.852Z,1.90
2017-08-07T10:53:15.578Z,1.50
2017-08-07T10:55:42.363Z,2.13
2017-08-07T10:58:09.055Z,1.80
2017-08-07T11:00:35.758Z,1.83
2017-08-07T11:03:02.477Z,2.10
2017-08-07T11:05:29.187Z,1.97
2017-08-07T11:07:55.919Z,2.10
2017-08-07T11:10:22.613Z,1.90
2017-08-07T11:12:49.333Z,2.43
2017-08-07T11:15:16.042Z,1.90
2017-08-07T11:17:42.802Z,2.17
2017-08-07T11:20:09.496Z,2.53
2017-08-07T11:22:36.195Z,2.60
2017-08-07T11:25:02.929Z,1.80
2017-08-07T11:27:29.672Z,2.10
2017-08-07T11:29:56.434Z,1.87
2017-08-07T11:32:23.123Z,2.03
2017-08-07T11:34:49.871Z,2.30
2017-08-07T11:37:16.587Z,1.80
2017-08-07T11:39:43.307Z,2.50
2017-08-07T11:42:10.036Z,2.13
2017-08-07T11:44:36.758Z,2.00
2017-08-07T11:47:03.810Z,2.20
2017-08-07T11:49:30.589Z,2.40
2017-08-07T11:51:57.295Z,1.77
2017-08-07T11:54:24.034Z,2.33
2017-08-07T11:56:50.785Z,2.30
2017-08-07T11:59:17.474Z,2.10
2017-08-07T12:01:44.172Z,2.20
2017-08-07T12:04:10.912Z,2.23
2017-08-07T12:06:37.619Z,1.90
2017-08-07T12:09:04.351Z,3.23
2017-08-07T12:11:31.046Z,2.33
2017-08-07T12:13:57.786Z,1.73
2017-08-07T12:16:24.506Z,2.30
2017-08-07T12:18:51.369Z,2.57
2017-08-07T12:21:18.100Z,2.60
2017-08-07T12:23:44.782Z,2.17
2017-08-07T12:26:11.510Z,2.50
2017-08-07T12:28:38.247Z,2.20
2017-08-07T12:31:04.976Z,1.77
2017-08-07T12:33:31.687Z,2.30
2017-08-07T12:35:58.425Z,1.90
2017-08-07T12:38:25.115Z,2.00
2017-08-07T12:40:51.826Z,2.40
2017-08-07T12:43:18.581Z,2.03
2017-08-07T12:45:45.274Z,2.10
2017-08-07T12:48:11.971Z,2.00
2017-08-07T12:50:38.702Z,1.90
2017-08-07T12:53:05.403Z,2.30
2017-08-07T12:55:32.151Z,1.97
2017-08-07T12:57:58.839Z,2.03
2017-08-07T13:00:25.527Z,2.00
2017-08-07T13:02:52.234Z,2.20
2017-08-07T13:05:18.980Z,1.87
2017-08-07T13:07:45.691Z,2.00
2017-08-07T13:10:12.386Z,1.87
2017-08-07T13:12:39.113Z,2.17
2017-08-07T13:15:05.858Z,2.00
2017-08-07T13:17:32.602Z,2.30
2017-08-07T13:19:59.302Z,1.90
2017-08-07T13:22:26.002Z,2.13
2017-08-07T13:24:52.715Z,2.00
2017-08-07T13:27:19.484Z,2.00
2017-08-07T13:29:46.206Z,2.33
2017-08-07T13:32:12.887Z,2.00
2017-08-07T13:34:39.577Z,2.43
2017-08-07T13:37:06.306Z,1.70
2017-08-07T13:39:33.004Z,2.00
2017-08-07T13:41:59.714Z,1.60
2017-08-07T13:44:26.468Z,2.00
2017-08-07T13:46:53.158Z,2.10
2017-08-07T13:49:19.890Z,2.07
2017-08-07T13:51:46.594Z,1.83
2017-08-07T13:54:13.322Z,2.00
2017-08-07T13:56:40.091Z,2.00
2017-08-07T13:59:06.781Z,1.83
2017-08-07T14:01:33.481Z,1.70
2017-08-07T14:04:00.239Z,1.97
2017-08-07T14:06:26.933Z,1.93
2017-08-07T14:08:53.641Z,2.00
2017-08-07T14:11:20.379Z,1.80
2017-08-07T14:13:47.075Z,1.70
2017-08-07T14:16:13.807Z,2.00
2017-08-07T14:18:40.512Z,1.93
2017-08-07T14:21:07.211Z,1.97
2017-08-07T14:23:33.940Z,2.00
2017-08-07T14:26:00.641Z,2.07
2017-08-07T14:28:27.367Z,1.97
2017-08-07T14:30:54.103Z,1.90
2017-08-07T14:33:20.808Z,1.50
2017-08-07T14:35:47.555Z,1.90
2017-08-07T14:38:14.254Z,1.77
2017-08-07T14:40:40.955Z,1.97
2017-08-07T14:43:07.675Z,1.90
2017-08-07T14:45:34.424Z,1.90
2017-08-07T14:48:01.168Z,1.50
2017-08-07T14:50:27.854Z,2.03
2017-08-07T14:52:54.558Z,1.67
2017-08-07T14:55:21.292Z,1.63
2017-08-07T14:57:47.986Z,1.93
2017-08-07T15:00:14.733Z,2.40
2017-08-07T15:02:41.416Z,1.70
2017-08-07T15:05:08.106Z,2.30
2017-08-07T15:07:34.829Z,2.00
2017-08-07T15:10:01.543Z,2.17
2017-08-07T15:12:28.248Z,1.30
2017-08-07T15:14:54.941Z,1.70
2017-08-07T15:17:21.658Z,2.00
2017-08-07T15:19:48.369Z,2.27
2017-08-07T15:22:15.067Z,1.70
2017-08-07T15:24:41.805Z,2.37
2017-08-07T15:27:08.491Z,1.93
2017-08-07T15:29:35.276Z,1.67
2017-08-07T15:32:02.014Z,2.00
2017-08-07T15:34:28.706Z,2.00
2017-08-07T15:36:55.411Z,2.10
2017-08-07T15:39:22.119Z,1.93
2017-08-07T15:41:48.838Z,1.83
2017-08-07T15:44:15.559Z,2.10
2017-08-07T15:46:42.321Z,1.80
2017-08-07T15:49:09.039Z,1.90
2017-08-07T15:51:35.838Z,2.20
2017-08-07T15:54:02.561Z,2.10
2017-08-07T15:56:29.274Z,1.63
2017-08-07T15:58:56.011Z,2.20
2017-08-07T16:01:22.736Z,2.00
2017-08-07T16:03:49.540Z,2.20
2017-08-07T16:06:16.262Z,2.20
2017-08-07T16:08:42.985Z,1.97
2017-08-07T16:11:09.689Z,2.03
2017-08-07T16:13:36.433Z,2.03
2017-08-07T16:16:03.142Z,2.10
2017-08-07T16:18:29.892Z,2.23
2017-08-07T16:20:56.588Z,2.00
2017-08-07T16:23:23.315Z,2.13
2017-08-07T16:25:50.038Z,2.53
2017-08-07T16:28:16.779Z,2.27
2017-08-07T16:30:43.462Z,2.43
2017-08-07T16:33:10.146Z,1.90
2017-08-07T16:35:36.867Z,2.03
2017-08-07T16:38:03.593Z,2.40
2017-08-07T16:40:30.285Z,2.13
2017-08-07T16:42:56.990Z,2.30
2017-08-07T16:45:23.719Z,2.03
2017-08-07T16:47:50.469Z,2.00
2017-08-07T16:50:17.187Z,1.73
2017-08-07T16:52:43.882Z,1.83
2017-08-07T16:55:10.599Z,2.63
2017-08-07T16:57:37.279Z,3.27
2017-08-07T17:00:04.054Z,2.23
2017-08-07T17:02:30.895Z,2.30
2017-08-07T17:04:57.586Z,1.90
2017-08-07T17:07:24.304Z,2.70
2017-08-07T17:09:51.030Z,2.70
2017-08-07T17:12:17.759Z,2.37
2017-08-07T17:14:44.442Z,2.10
2017-08-07T17:17:11.158Z,2.40
2017-08-07T17:19:37.843Z,2.47
2017-08-07T17:22:04.560Z,2.60
2017-08-07T17:24:31.275Z,2.00
2017-08-07T17:26:58.020Z,2.40
2017-08-07T17:29:24.716Z,1.80
2017-08-07T17:31:51.405Z,2.43
2017-08-07T17:34:18.134Z,2.23
2017-08-07T17:36:44.839Z,2.37
2017-08-07T17:39:11.541Z,2.80
2017-08-07T17:41:38.242Z,2.63
2017-08-07T17:44:04.954Z,2.83
2017-08-07T17:46:31.635Z,2.97
2017-08-07T17:48:58.390Z,2.60
2017-08-07T17:51:25.149Z,3.13
2017-08-07T17:53:51.890Z,2.90
2017-08-07T17:56:18.598Z,2.80
2017-08-07T17:58:45.319Z,3.27
2017-08-07T18:01:12.034Z,3.00
2017-08-07T18:03:38.820Z,2.60
2017-08-07T18:06:05.634Z,3.17
2017-08-07T18:08:32.331Z,3.50
2017-08-07T18:10:59.128Z,2.73
2017-08-07T18:13:25.842Z,2.87
2017-08-07T18:15:52.558Z,3.03
2017-08-07T18:18:19.264Z,3.10
2017-08-07T18:20:45.952Z,3.30
2017-08-07T18:23:12.832Z,3.10
2017-08-07T18:25:39.606Z,3.13
2017-08-07T18:28:06.361Z,3.30
2017-08-07T18:30:33.066Z,3.30
2017-08-07T18:32:59.855Z,3.30
2017-08-07T18:35:26.605Z,4.23
2017-08-07T18:37:53.386Z,3.67
2017-08-07T18:40:20.126Z,3.27
2017-08-07T18:42:46.858Z,4.00
2017-08-07T18:45:13.774Z,3.70
2017-08-07T18:47:40.471Z,4.27
2017-08-07T18:50:07.254Z,3.70
2017-08-07T18:52:33.967Z,3.70
2017-08-07T18:55:00.660Z,3.47
2017-08-07T18:57:27.399Z,3.30
2017-08-07T18:59:54.142Z,3.10
2017-08-07T19:02:21.702Z,3.93
2017-08-07T19:04:48.518Z,3.50
2017-08-07T19:07:15.219Z,3.77
2017-08-07T19:09:42.009Z,3.97
2017-08-07T19:12:08.772Z,3.57
2017-08-07T19:14:35.631Z,3.90
2017-08-07T19:17:02.364Z,3.70
2017-08-07T19:19:29.111Z,4.20
2017-08-07T19:21:55.977Z,3.83
2017-08-07T19:24:22.675Z,3.57
2017-08-07T19:26:49.443Z,3.60
2017-08-07T19:29:16.394Z,4.10
2017-08-07T19:31:43.353Z,4.20
2017-08-07T19:34:10.137Z,4.20
2017-08-07T19:36:36.927Z,3.73
2017-08-07T19:39:03.706Z,4.57
2017-08-07T19:41:30.439Z,4.00
2017-08-07T19:43:57.158Z,3.50
2017-08-07T19:46:23.888Z,3.77
2017-08-07T19:48:50.600Z,3.70
2017-08-07T19:51:17.354Z,3.83
2017-08-07T19:53:44.095Z,4.50
2017-08-07T19:56:10.795Z,3.87
2017-08-07T19:58:37.539Z,4.27
2017-08-07T20:01:04.307Z,4.03
2017-08-07T20:03:31.138Z,3.50
2017-08-07T20:05:57.823Z,3.60
2017-08-07T20:08:24.528Z,4.33
2017-08-07T20:10:51.271Z,3.70
2017-08-07T20:13:17.965Z,3.70
2017-08-07T20:15:44.719Z,4.30
2017-08-07T20:18:11.462Z,3.70
2017-08-07T20:20:38.185Z,3.93
2017-08-07T20:23:04.871Z,3.77
2017-08-07T20:25:31.615Z,3.90
2017-08-07T20:27:58.305Z,3.40
2017-08-07T20:30:25.006Z,3.83
2017-08-07T20:32:51.878Z,3.53
2017-08-07T20:35:18.584Z,4.07
2017-08-07T20:37:45.279Z,4.13
2017-08-07T20:40:11.994Z,3.80
2017-08-07T20:42:38.862Z,4.10
2017-08-07T20:45:05.606Z,4.20
2017-08-07T20:47:32.306Z,3.73
2017-08-07T20:49:59.014Z,4.20
2017-08-07T20:52:25.954Z,3.77
2017-08-07T20:54:52.700Z,3.73
2017-08-07T20:57:19.396Z,3.73
2017-08-07T20:59:46.103Z,4.03
2017-08-07T21:02:12.846Z,3.53
2017-08-07T21:04:39.569Z,3.57
2017-08-07T21:07:06.281Z,4.40
2017-08-07T21:09:33.006Z,3.47
2017-08-07T21:11:59.764Z,3.40
2017-08-07T21:14:26.530Z,3.90
2017-08-07T21:16:53.309Z,3.57
2017-08-07T21:19:20.036Z,3.80
2017-08-07T21:21:46.709Z,3.87
2017-08-07T21:24:13.451Z,3.70
2017-08-07T21:26:40.136Z,4.10
2017-08-07T21:29:06.844Z,3.83
2017-08-07T21:31:33.562Z,4.60
2017-08-07T21:34:00.239Z,4.00
2017-08-07T21:36:26.970Z,3.50
2017-08-07T21:38:53.654Z,4.10
2017-08-07T21:41:20.350Z,3.93
2017-08-07T21:43:47.066Z,3.80
2017-08-07T21:46:13.843Z,4.07
2017-08-07T21:48:40.648Z,4.20
2017-08-07T21:51:07.317Z,3.87
2017-08-07T21:53:34.053Z,4.00
2017-08-07T21:56:00.752Z,4.00
2017-08-07T21:58:27.416Z,3.70
2017-08-07T22:00:54.141Z,3.70
2017-08-07T22:03:20.829Z,3.90
2017-08-07T22:05:47.538Z,4.60
2017-08-07T22:08:14.263Z,4.00
2017-08-07T22:10:40.974Z,4.00
2017-08-07T22:13:07.699Z,4.00
2017-08-07T22:15:34.387Z,4.10
2017-08-07T22:18:01.226Z,3.97
2017-08-07T22:20:27.921Z,4.00
2017-08-07T22:22:54.602Z,3.77
2017-08-07T22:25:21.449Z,3.60
2017-08-07T22:27:48.154Z,3.73
2017-08-07T22:30:14.850Z,4.00
2017-08-07T22:32:41.567Z,3.60
2017-08-07T22:35:08.245Z,4.10
2017-08-07T22:37:34.966Z,3.43
2017-08-07T22:40:01.658Z,3.80
2017-08-07T22:42:28.390Z,4.23
2017-08-07T22:44:55.080Z,3.50
2017-08-07T22:47:21.779Z,4.50
2017-08-07T22:49:48.490Z,4.00
2017-08-07T22:52:15.183Z,3.87
2017-08-07T22:54:42.278Z,3.50
2017-08-07T22:57:08.982Z,4.00
2017-08-07T22:59:35.679Z,3.90
2017-08-07T23:02:02.436Z,3.60
2017-08-07T23:04:29.122Z,4.00
2017-08-07T23:06:55.849Z,3.73
2017-08-07T23:09:22.600Z,3.97
2017-08-07T23:11:49.290Z,4.47
2017-08-07T23:14:15.971Z,3.70
2017-08-07T23:16:42.702Z,3.50
2017-08-07T23:19:09.387Z,4.20
2017-08-07T23:21:36.170Z,4.13
2017-08-07T23:24:02.887Z,3.53
2017-08-07T23:26:29.579Z,3.97
2017-08-07T23:28:56.310Z,4.10
2017-08-07T23:31:22.991Z,3.63
2017-08-07T23:33:49.771Z,3.90
2017-08-07T23:36:16.469Z,3.77
2017-08-07T23:38:43.250Z,3.83
2017-08-07T23:41:09.976Z,4.30
2017-08-07T23:43:36.668Z,4.43
2017-08-07T23:46:03.345Z,4.20
2017-08-07T23:48:30.064Z,4.60
2017-08-07T23:50:56.768Z,4.17
2017-08-07T23:53:23.476Z,4.03
2017-08-07T23:55:50.194Z,4.70
2017-08-07T23:58:16.968Z,4.20
